Kezdőlap
METAR-TAF:

METAR-TAF

Repülőterek :

Kuvaitváros, Kuvait

földrajzi szélesség: 29-13N, földrajzi hosszúság: 047-59E, magasság: 55 m

Jelenlegi meteorológiai megfigyelések

A jelentés 42 perccel ezelõtt készült, 00:00 UTC
Szélcsend
Hőmérséklet 22°C
Páratartalom 43%
Légköri nyomás 1012 hPa
Látótávolság: 7000 m
Derült ég

METAR: OKBK 240000Z 00000KT 7000 SKC 22/09 Q1012 NOSIG

Idő: 03:42 (00:42 UTC)

Előrejelzés

A jelentés 7 órával és 57 perccel ezelõtt készült, 16:45 UTC
Az előrejelzés 23-én 18 óra UTC és 24-én 24 óra UTC között érvényes
Északi szél 8 kt széllökések: 18 kt
Látótávolság: 6000 m
23-én 18 óra UTC és 23-én 21 óra UTC között ideiglenes
Látótávolság: 3000 m
Száraz légköri homály

TAF: OKBK 231645Z 2318/2424 36008G18KT 6000 NSC TEMPO 2318/2321 3000 HZ

Meteorológiai megfigyelések és előrejelzések több, mint 4000 repülőtéren (METAR és TAF jelentéseket).

A térképen piros és sárga pontok jelzik az elérhető meteorológiai állomásokat.

Mozgassa az egeret a pont fölött, hogy megjelenjen az állomás neve.

Azután kattintson az időjárási megfigyelések és előrejelzések megtekintéséhez.

A térkép megváltoztatása: kattintson a fekete keresztel jelölt zöld gombra ráközelítéshez, a vonallal jelölt zöld gombra távolításhoz, vagy a zöld nyilakra a szomszédos térképek eléréséhez.


METAR-TAF: